CheckWX is a tool to help pilots better visualize weather data.  It is not intended as a substitute for an official pre-flight weather briefing.

14:50:05 UTC

KARA TAF
Acadiana Regional Airport
New Iberia, Louisiana, USA
KARA 151120Z 1512/1612 03006KT P6SM SCT050 FM151400 05009KT P6SM SCT050 FM151700 07009KT P6SM SCT050 FM152000 09010KT P6SM BKN060 FM160100 VRB05KT P6SM SCT250

Sep-15@
12:00 UTC

Sep-15 @ 12:00 UTC

Sep-15@
14:00 UTC

Sep-15 @ 14:00 UTC

KARA 151120Z 1512/1612 03006KT P6SM SCT050

Expired

Wind
  • 030° at 6 KTS
Cloud Levels
  • Scattered at 5,000' AGL

Sep-15@
14:00 UTC

Sep-15 @ 14:00 UTC

Sep-15@
17:00 UTC

Sep-15 @ 17:00 UTC

FM151400 05009KT P6SM SCT050

From

From Standard forecast or significant change

Wind
  • 050° at 9 KTS
Cloud Levels
  • Scattered at 5,000' AGL

Sep-15@
17:00 UTC

Sep-15 @ 17:00 UTC

Sep-15@
20:00 UTC

Sep-15 @ 20:00 UTC

FM151700 07009KT P6SM SCT050

From

From Standard forecast or significant change

Wind
  • 070° at 9 KTS
Cloud Levels
  • Scattered at 5,000' AGL

Sep-15@
20:00 UTC

Sep-15 @ 20:00 UTC

Sep-16@
01:00 UTC

Sep-16 @ 01:00 UTC

FM152000 09010KT P6SM BKN060

From

From Standard forecast or significant change

Wind
  • 090° at 10 KTS
Cloud Levels
  • Broken at 6,000' AGL

Sep-16@
01:00 UTC

Sep-16 @ 01:00 UTC

Sep-16@
12:00 UTC

Sep-16 @ 12:00 UTC

FM160100 VRB05KT P6SM SCT250

From

From Standard forecast or significant change

Wind
  • Variable at 5 KTS
Cloud Levels
  • Scattered at 25,000' AGL